Indianapolis, Indiana
Traffic Map
Current Weather Conditions
Indianapolis, Indiana
Overcast Light Rain
Overcast
44°
Feels Like: 39°
Wind Chill: 39° Ceiling: 600
Heat Index: 44° Visibility: 4mi
Dew Point: 43° Wind: 9mph
Humidity: 96% Direction: 100° (E)
Pressure: 29.68in Gusts: 0mph
Raw Report DataKIND 200454Z 10008KT 4SM -RA BR OVC006 07/06 A2968 RMK AO2 SLP055 P0015 T00670061 400780011
Traffic Incident Summary
Active as of:
Severity:
Category:
InformationThere was an issue retrieving the traffic information for this location. Please try a different location or try again shortly.
Advertisements
Track Severe Weather on mobile